Time;durP1;ratioP1;P1;durP2;ratioP2;P2;SDS_P1;SDS_P2;PMS_P1;PMS_P2;Temp;Humidity;BMP_temperature;BMP_pressure;BME280_temperature;BME280_humidity;BME280_pressure;Samples;Min_cycle;Max_cycle;Signal;HPM_P1;HPM_P2
2024/01/07 00:00:56;;;;;;;2.50;1.95;;;;;;;17.59;46.33;101553.91;20832805;28;20088;-69
2024/01/07 00:10:57;;;;;;;1.88;1.30;;;;;;;17.61;46.21;101557.34;20849919;28;20416;-69
2024/01/07 00:21:01;;;;;;;2.53;1.65;;;;;;;17.61;45.88;101571.69;20842836;28;20485;-69
2024/01/07 00:31:03;;;;;;;1.65;1.35;;;;;;;17.61;45.84;101576.19;20830839;28;20255;-69
2024/01/07 00:41:05;;;;;;;1.95;1.50;;;;;;;17.62;45.73;101585.97;20819397;28;20130;-68
2024/01/07 00:51:07;;;;;;;1.80;1.55;;;;;;;17.63;45.46;101599.34;20828118;28;20094;-69
2024/01/07 01:01:09;;;;;;;1.70;1.60;;;;;;;17.68;45.42;101607.06;20851949;28;20045;-69
2024/01/07 01:11:11;;;;;;;1.90;1.20;;;;;;;17.69;45.29;101619.56;20845808;28;20049;-68
2024/01/07 01:21:13;;;;;;;2.05;1.55;;;;;;;17.71;45.11;101622.13;20822514;28;20048;-69
2024/01/07 01:31:17;;;;;;;2.42;1.50;;;;;;;17.73;45.04;101629.13;20828746;28;20127;-69
2024/01/07 01:41:20;;;;;;;1.63;1.38;;;;;;;17.78;44.72;101645.78;20839295;28;20064;-69
2024/01/07 01:51:22;;;;;;;1.45;1.33;;;;;;;17.78;44.76;101655.69;20848355;28;20054;-69
2024/01/07 02:01:24;;;;;;;1.52;1.30;;;;;;;17.76;44.55;101673.78;20845058;28;20425;-69
2024/01/07 02:11:27;;;;;;;1.65;1.50;;;;;;;17.76;44.49;101685.44;20838937;28;20194;-69
2024/01/07 02:21:29;;;;;;;1.40;1.30;;;;;;;17.77;44.34;101686.28;20836601;28;20048;-69
2024/01/07 02:31:31;;;;;;;1.35;1.25;;;;;;;17.75;44.29;101705.28;20842024;28;20069;-69
2024/01/07 02:41:33;;;;;;;1.42;1.33;;;;;;;17.78;44.15;101714.94;20851779;28;20053;-69
2024/01/07 02:51:34;;;;;;;1.20;1.00;;;;;;;17.77;44.12;101730.25;20830897;28;20052;-69
2024/01/07 03:01:40;;;;;;;1.88;1.20;;;;;;;17.73;44.05;101733.28;20816692;28;20489;-69
2024/01/07 03:11:42;;;;;;;1.70;1.20;;;;;;;17.72;44.06;101748.59;20850332;28;20053;-69
2024/01/07 03:21:43;;;;;;;1.30;1.20;;;;;;;17.74;43.92;101754.72;20840024;28;20102;-69
2024/01/07 03:31:45;;;;;;;1.38;1.10;;;;;;;17.72;43.86;101762.06;20841849;28;20493;-69
2024/01/07 03:41:47;;;;;;;1.02;0.90;;;;;;;17.72;43.67;101780.91;20833517;28;20087;-69
2024/01/07 03:51:49;;;;;;;1.10;1.00;;;;;;;17.67;43.72;101783.06;20822997;28;20147;-69
2024/01/07 04:01:53;;;;;;;1.30;1.20;;;;;;;17.56;43.54;101778.50;20851582;28;20086;-69
2024/01/07 04:11:55;;;;;;;1.27;0.83;;;;;;;17.69;43.47;101808.06;20861154;28;20056;-69
2024/01/07 04:21:57;;;;;;;1.05;0.95;;;;;;;17.63;43.35;101813.88;20847677;28;20089;-69
2024/01/07 04:31:59;;;;;;;0.93;0.90;;;;;;;17.56;43.19;101818.00;20834286;28;20053;-69
2024/01/07 04:42:00;;;;;;;1.42;0.90;;;;;;;17.59;43.17;101829.41;20823679;28;20094;-69
2024/01/07 04:52:02;;;;;;;1.65;1.02;;;;;;;17.51;43.17;101848.81;20828882;28;20738;-69
2024/01/07 05:02:04;;;;;;;1.10;1.00;;;;;;;17.50;42.91;101863.25;20841832;28;20037;-69
2024/01/07 05:12:06;;;;;;;1.00;0.90;;;;;;;17.51;42.78;101878.41;20803142;28;20077;-69
2024/01/07 05:22:11;;;;;;;1.37;0.93;;;;;;;17.53;42.69;101900.72;20796956;28;20146;-69
2024/01/07 05:32:12;;;;;;;1.33;0.90;;;;;;;17.32;42.72;101896.88;20804751;28;20048;-69
2024/01/07 05:42:14;;;;;;;1.35;1.20;;;;;;;17.36;42.68;101922.59;20818019;28;20444;-69
2024/01/07 05:52:16;;;;;;;1.27;0.80;;;;;;;17.28;42.59;101949.19;20817671;28;20061;-69
2024/01/07 06:02:18;;;;;;;2.05;0.90;;;;;;;17.28;42.42;101966.19;20836586;28;20053;-69
2024/01/07 06:12:20;;;;;;;0.80;0.70;;;;;;;17.21;42.50;101973.81;20835330;28;20088;-69
2024/01/07 06:22:21;;;;;;;1.23;0.77;;;;;;;17.17;42.32;101987.59;20818727;28;20501;-69
2024/01/07 06:32:25;;;;;;;0.57;0.50;;;;;;;17.12;42.45;102004.03;20857590;28;20132;-69
2024/01/07 06:42:26;;;;;;;1.33;0.73;;;;;;;17.06;42.46;102020.59;20833605;28;20055;-69
2024/01/07 06:52:28;;;;;;;1.60;0.93;;;;;;;17.04;42.29;102034.19;20846296;28;20056;-69
2024/01/07 07:02:30;;;;;;;0.90;0.70;;;;;;;17.01;42.55;102060.41;20829055;28;20413;-69
2024/01/07 07:12:32;;;;;;;0.88;0.70;;;;;;;16.94;42.22;102060.78;20843748;28;20045;-69
2024/01/07 07:22:34;;;;;;;1.10;0.70;;;;;;;16.92;42.19;102070.78;20803436;28;20124;-69
2024/01/07 07:32:35;;;;;;;1.23;0.80;;;;;;;16.89;41.99;102099.69;20813802;28;20182;-69
2024/01/07 07:42:37;;;;;;;1.13;0.60;;;;;;;16.82;42.06;102120.78;20810206;28;20092;-69
2024/01/07 07:52:41;;;;;;;1.00;0.57;;;;;;;16.80;41.98;102144.22;20817327;28;20056;-75
2024/01/07 08:02:42;;;;;;;1.48;0.60;;;;;;;16.74;42.65;102163.41;20829051;28;20049;-74
2024/01/07 08:12:44;;;;;;;1.50;0.88;;;;;;;16.95;44.55;102174.63;20833660;28;20487;-71
2024/01/07 08:22:46;;;;;;;1.23;0.88;;;;;;;17.15;43.80;102202.09;20806052;28;20407;-72
2024/01/07 08:32:48;;;;;;;1.33;0.80;;;;;;;17.33;43.48;102218.88;20799454;28;20049;-72
2024/01/07 08:42:57;;;;;;;2.75;0.80;;;;;;;17.54;42.79;102240.84;21002312;27;21057;-73
2024/01/07 08:52:59;;;;;;;0.75;0.75;;;;;;;17.63;42.33;102268.97;20984272;28;20265;-73
2024/01/07 09:03:04;;;;;;;2.38;0.80;;;;;;;17.69;41.98;102266.75;20998845;28;20055;-73
2024/01/07 09:13:06;;;;;;;1.05;0.73;;;;;;;17.68;41.58;102265.03;21015812;28;20139;-74
2024/01/07 09:23:08;;;;;;;0.88;0.77;;;;;;;17.79;41.21;102276.91;21088621;28;20044;-73
2024/01/07 09:33:10;;;;;;;1.02;0.70;;;;;;;17.85;40.89;102289.13;21088712;28;20043;-74
2024/01/07 09:43:12;;;;;;;1.65;0.70;;;;;;;17.92;40.43;102304.78;21087529;28;20058;-73
2024/01/07 09:53:16;;;;;;;0.80;0.52;;;;;;;18.00;39.87;102322.25;21037062;28;20052;-73
2024/01/07 10:03:18;;;;;;;0.90;0.60;;;;;;;17.94;40.26;102324.41;21029571;28;20056;-73
2024/01/07 10:13:20;;;;;;;1.15;0.60;;;;;;;17.89;40.16;102323.81;20996134;28;20059;-73
2024/01/07 10:23:22;;;;;;;0.68;0.60;;;;;;;17.84;39.89;102328.66;21028389;28;20389;-73
2024/01/07 10:33:24;;;;;;;1.67;0.70;;;;;;;17.78;39.95;102351.47;21011147;28;20156;-73
2024/01/07 10:43:29;;;;;;;1.15;0.75;;;;;;;17.81;39.97;102351.28;21026425;28;20051;-73
2024/01/07 10:53:36;;;;;;;0.47;0.47;;;;;;;17.71;39.65;102339.38;21041884;28;20048;-73
2024/01/07 11:03:46;;;;;;;1.10;0.70;;;;;;;17.87;39.74;102363.47;21019426;28;20051;-73
2024/01/07 11:13:48;;;;;;;1.73;0.60;;;;;;;18.21;39.34;102357.72;21012439;28;20064;-73
2024/01/07 11:23:49;;;;;;;1.92;1.08;;;;;;;18.40;39.03;102368.13;21011959;28;20044;-74
2024/01/07 11:33:51;;;;;;;1.30;0.77;;;;;;;19.24;37.89;102371.34;20984817;28;20499;-73
2024/01/07 11:44:00;;;;;;;1.10;0.50;;;;;;;19.51;37.10;102378.47;21002348;28;20790;-74
2024/01/07 11:54:08;;;;;;;0.82;0.60;;;;;;;18.73;37.69;102369.47;21027193;28;20047;-73
2024/01/07 12:04:10;;;;;;;1.05;0.65;;;;;;;18.46;38.13;102366.84;21015665;28;20123;-73
2024/01/07 12:14:12;;;;;;;0.88;0.55;;;;;;;18.33;38.32;102364.97;21020203;28;20059;-73
2024/01/07 12:24:14;;;;;;;0.70;0.60;;;;;;;18.73;38.27;102360.53;21038622;28;20457;-73
2024/01/07 12:34:15;;;;;;;0.75;0.60;;;;;;;20.86;35.53;102373.84;21003255;28;20059;-73
2024/01/07 12:44:18;;;;;;;1.00;0.70;;;;;;;20.13;36.19;102382.06;21002562;28;20055;-73
2024/01/07 12:54:21;;;;;;;0.95;0.75;;;;;;;20.00;36.34;102373.16;21003051;28;20059;-73
2024/01/07 13:04:23;;;;;;;1.65;0.75;;;;;;;19.22;37.26;102389.50;21002037;28;20499;-73
2024/01/07 13:14:25;;;;;;;1.25;0.88;;;;;;;18.65;37.59;102385.31;21001287;28;20048;-73
2024/01/07 13:24:27;;;;;;;1.35;0.90;;;;;;;18.23;38.27;102391.69;21042504;28;20052;-73
2024/01/07 13:34:29;;;;;;;1.63;0.90;;;;;;;17.95;38.89;102406.97;21031773;28;20051;-73
2024/01/07 13:44:34;;;;;;;1.10;0.70;;;;;;;17.83;38.84;102407.72;21012538;28;20404;-73
2024/01/07 13:54:37;;;;;;;1.65;0.80;;;;;;;17.76;39.13;102420.75;21048163;28;20051;-73
2024/01/07 14:04:39;;;;;;;1.17;0.70;;;;;;;17.66;39.32;102427.66;21029694;28;20090;-73
2024/01/07 14:14:41;;;;;;;1.17;0.75;;;;;;;17.60;39.52;102449.59;21013179;28;20056;-73
2024/01/07 14:24:43;;;;;;;0.90;0.60;;;;;;;17.56;39.56;102450.75;21028727;28;20056;-73
2024/01/07 14:34:45;;;;;;;1.00;0.90;;;;;;;17.49;39.71;102461.91;21010231;28;20519;-73
2024/01/07 14:44:47;;;;;;;1.00;0.90;;;;;;;17.43;39.85;102466.81;21025620;28;20080;-73
2024/01/07 14:54:52;;;;;;;;;;;;;;;17.38;39.82;102485.97;20995646;28;20502;-73
2024/01/07 15:04:54;;;;;;;0.98;0.80;;;;;;;17.28;39.98;102492.88;20997417;28;19924;-73
2024/01/07 15:14:56;;;;;;;1.33;1.00;;;;;;;17.23;40.04;102503.91;21004790;28;20066;-72
2024/01/07 15:24:58;;;;;;;0.93;0.68;;;;;;;17.18;40.18;102506.00;20994000;28;20102;-73
2024/01/07 15:35:00;;;;;;;1.35;0.98;;;;;;;17.13;40.01;102508.97;21022806;28;20095;-73
2024/01/07 15:45:02;;;;;;;1.10;1.00;;;;;;;17.09;40.18;102519.06;21021930;28;20063;-73
2024/01/07 15:55:04;;;;;;;1.30;1.17;;;;;;;17.05;40.17;102530.97;21021730;28;20047;-73
2024/01/07 16:05:07;;;;;;;2.05;1.23;;;;;;;17.03;40.17;102534.69;21003670;28;20086;-73
2024/01/07 16:15:09;;;;;;;0.98;0.65;;;;;;;16.94;40.78;102546.81;21003261;28;20389;-70
2024/01/07 16:25:11;;;;;;;0.90;0.77;;;;;;;16.86;41.45;102552.66;21009541;28;20104;-69
2024/01/07 16:35:12;;;;;;;0.70;0.60;;;;;;;16.74;41.97;102570.38;20986971;28;20561;-67
2024/01/07 16:45:14;;;;;;;2.55;0.88;;;;;;;16.70;42.96;102570.63;20987797;28;20044;-73
2024/01/07 16:55:16;;;;;;;2.67;1.10;;;;;;;16.59;43.58;102584.69;20984136;28;20107;-70
2024/01/07 17:05:18;;;;;;;2.08;1.35;;;;;;;16.54;45.17;102590.31;21020323;28;20063;-70
2024/01/07 17:15:20;;;;;;;3.40;1.60;;;;;;;16.49;45.28;102597.78;21014423;28;20052;-71
2024/01/07 17:25:25;;;;;;;2.22;1.70;;;;;;;16.41;47.96;102616.16;20996798;28;20196;-68
2024/01/07 17:35:26;;;;;;;3.42;1.83;;;;;;;16.36;48.57;102629.84;21003643;28;20068;-71
2024/01/07 17:45:28;;;;;;;2.22;1.95;;;;;;;16.51;49.98;102637.06;20988305;28;20044;-72
2024/01/07 17:55:30;;;;;;;2.13;1.55;;;;;;;16.75;51.38;102647.41;20980122;28;20048;-73
2024/01/07 18:05:34;;;;;;;1.40;1.23;;;;;;;16.86;51.08;102656.69;21009389;28;20059;-66
2024/01/07 18:15:37;;;;;;;3.03;1.67;;;;;;;16.90;50.69;102664.53;21009754;28;20052;-68
2024/01/07 18:25:39;;;;;;;2.45;1.45;;;;;;;16.88;50.21;102673.63;20990069;28;20052;-67
2024/01/07 18:35:41;;;;;;;1.60;1.05;;;;;;;16.91;49.28;102687.78;21011726;28;20530;-69
2024/01/07 18:45:43;;;;;;;1.95;1.00;;;;;;;16.92;48.92;102702.06;20969788;28;20496;-68
2024/01/07 18:55:46;;;;;;;1.58;0.90;;;;;;;16.94;48.29;102711.81;20981861;28;20044;-77
2024/01/07 19:05:48;;;;;;;2.15;1.40;;;;;;;16.96;47.73;102709.03;20968183;28;20055;-72
2024/01/07 19:15:51;;;;;;;2.08;1.38;;;;;;;16.87;47.43;102721.19;20974490;28;20175;-71
2024/01/07 19:25:53;;;;;;;1.30;0.98;;;;;;;16.79;46.85;102728.78;20993094;28;20082;-70
2024/01/07 19:35:55;;;;;;;2.25;1.10;;;;;;;16.75;46.60;102724.53;20991255;28;20048;-71
2024/01/07 19:45:58;;;;;;;1.42;1.30;;;;;;;16.63;46.32;102740.38;20974421;28;20087;-73
2024/01/07 19:56:01;;;;;;;1.35;1.05;;;;;;;16.76;45.71;102758.53;21000261;28;20071;-72
2024/01/07 20:06:12;;;;;;;1.80;1.30;;;;;;;16.80;45.33;102760.16;20990542;28;20055;-72
2024/01/07 20:16:21;;;;;;;1.20;1.10;;;;;;;16.87;44.94;102758.84;20970804;28;20129;-71
2024/01/07 20:26:23;;;;;;;1.10;1.02;;;;;;;16.82;44.71;102767.16;20996069;28;20131;-71
2024/01/07 20:36:25;;;;;;;1.30;1.10;;;;;;;16.78;44.41;102764.69;20983665;28;20048;-71
2024/01/07 20:46:27;;;;;;;1.05;0.93;;;;;;;16.68;44.25;102778.66;20963022;28;20201;-71
2024/01/07 20:56:29;;;;;;;1.63;1.10;;;;;;;16.73;44.14;102788.28;21001670;28;20102;-73
2024/01/07 21:06:33;;;;;;;1.63;1.20;;;;;;;16.71;43.81;102790.19;21003913;28;20050;-70
2024/01/07 21:16:35;;;;;;;1.20;1.10;;;;;;;16.73;43.58;102782.91;20988673;28;20118;-72
2024/01/07 21:26:40;;;;;;;2.08;1.20;;;;;;;16.68;43.09;102786.72;21016067;28;20515;-72
2024/01/07 21:36:42;;;;;;;1.40;1.13;;;;;;;16.70;42.83;102785.78;21009237;28;20051;-71
2024/01/07 21:46:45;;;;;;;1.20;1.10;;;;;;;16.70;42.60;102789.34;21014414;28;20416;-71
2024/01/07 21:56:48;;;;;;;1.17;1.08;;;;;;;16.67;42.25;102792.19;21031171;28;20048;-72
2024/01/07 22:06:50;;;;;;;4.68;2.50;;;;;;;16.53;44.15;102809.06;21037288;28;20051;-72
2024/01/07 22:16:52;;;;;;;1.67;1.30;;;;;;;16.35;45.22;102813.56;21014692;28;20193;-71
2024/01/07 22:26:54;;;;;;;3.08;1.60;;;;;;;16.38;45.09;102822.38;21039423;28;20109;-72
2024/01/07 22:36:55;;;;;;;1.83;1.25;;;;;;;16.42;44.59;102819.50;20999148;28;20451;-72
2024/01/07 22:46:57;;;;;;;2.33;1.10;;;;;;;16.40;44.46;102835.72;21016742;28;20056;-71
2024/01/07 22:56:59;;;;;;;1.35;1.13;;;;;;;16.45;43.71;102835.47;21002037;28;20063;-72
2024/01/07 23:07:01;;;;;;;1.38;1.10;;;;;;;16.55;43.34;102839.44;21019333;28;20477;-72
2024/01/07 23:17:04;;;;;;;1.50;1.10;;;;;;;16.59;42.71;102830.25;20997961;28;20052;-72
2024/01/07 23:27:06;;;;;;;1.20;1.10;;;;;;;16.62;42.58;102834.59;20994969;28;20043;-72
2024/01/07 23:37:08;;;;;;;1.52;1.20;;;;;;;16.61;42.08;102825.66;21006855;28;20052;-71
2024/01/07 23:47:09;;;;;;;1.27;1.17;;;;;;;16.50;42.23;102833.41;21001121;28;20055;-71
2024/01/07 23:57:11;;;;;;;1.42;1.13;;;;;;;16.27;42.36;102824.72;21008582;28;20186;-71
